METAR Data
IDs: Format: Raw Decoded Include TAF

Data at: 0730 UTC 27 Feb 2020

METAR for:KPUB (Pueblo Mem Arpt, CO, US)
Text:KPUB 270653Z AUTO 23003KT 10SM CLR M07/M14 A3017 RMK AO2 SLP246 T10671139 400781139
Temperature: -6.7°C ( 20°F)
Dewpoint:-13.9°C ( 7°F) [RH = 56%]
Pressure (altimeter):30.17 inches Hg (1021.8 mb) [Sea level pressure: 1024.6 mb]
Winds:from the SW (230 degrees) at 3 MPH (3 knots; 1.5 m/s)
Visibility:10 or more sm (16+ km)
Ceiling:at least 12,000 feet AGL
Clouds:sky clear below 12,000 feet AGL
QC Flag:automated observation with no human augmentation